sensor_id;sensor_type;location;lat;lon;timestamp;P1;durP1;ratioP1;P2;durP2;ratioP2
6564;SDS011;3316;44.118;27.258;2023-06-14T00:00:37;6.63;;;5.93;;
6564;SDS011;3316;44.118;27.258;2023-06-14T00:03:07;10.70;;;6.53;;
6564;SDS011;3316;44.118;27.258;2023-06-14T00:05:35;9.43;;;6.60;;
6564;SDS011;3316;44.118;27.258;2023-06-14T00:08:05;7.93;;;6.10;;
6564;SDS011;3316;44.118;27.258;2023-06-14T00:10:33;6.77;;;5.90;;
6564;SDS011;3316;44.118;27.258;2023-06-14T00:13:01;13.20;;;6.37;;
6564;SDS011;3316;44.118;27.258;2023-06-14T00:15:26;6.07;;;5.27;;
6564;SDS011;3316;44.118;27.258;2023-06-14T00:17:53;12.30;;;4.80;;
6564;SDS011;3316;44.118;27.258;2023-06-14T00:20:19;6.53;;;5.27;;
6564;SDS011;3316;44.118;27.258;2023-06-14T00:22:45;6.80;;;4.93;;
6564;SDS011;3316;44.118;27.258;2023-06-14T00:25:11;8.97;;;4.93;;
6564;SDS011;3316;44.118;27.258;2023-06-14T00:27:37;5.27;;;4.77;;
6564;SDS011;3316;44.118;27.258;2023-06-14T00:30:02;7.50;;;4.50;;
6564;SDS011;3316;44.118;27.258;2023-06-14T00:32:28;5.17;;;4.60;;
6564;SDS011;3316;44.118;27.258;2023-06-14T00:34:53;5.67;;;4.67;;
6564;SDS011;3316;44.118;27.258;2023-06-14T00:37:19;5.73;;;4.33;;
6564;SDS011;3316;44.118;27.258;2023-06-14T00:39:44;9.30;;;4.87;;
6564;SDS011;3316;44.118;27.258;2023-06-14T00:42:09;5.47;;;4.30;;
6564;SDS011;3316;44.118;27.258;2023-06-14T00:44:35;6.23;;;4.83;;
6564;SDS011;3316;44.118;27.258;2023-06-14T00:47:00;7.03;;;5.53;;
6564;SDS011;3316;44.118;27.258;2023-06-14T00:49:26;7.37;;;5.17;;
6564;SDS011;3316;44.118;27.258;2023-06-14T00:51:54;6.60;;;5.20;;
6564;SDS011;3316;44.118;27.258;2023-06-14T00:54:20;10.00;;;5.57;;
6564;SDS011;3316;44.118;27.258;2023-06-14T00:56:45;8.07;;;5.50;;
6564;SDS011;3316;44.118;27.258;2023-06-14T00:59:11;6.80;;;5.50;;
6564;SDS011;3316;44.118;27.258;2023-06-14T01:01:36;6.47;;;5.23;;
6564;SDS011;3316;44.118;27.258;2023-06-14T01:04:03;7.37;;;5.57;;
6564;SDS011;3316;44.118;27.258;2023-06-14T01:11:59;7.33;;;5.10;;
6564;SDS011;3316;44.118;27.258;2023-06-14T01:14:29;9.20;;;5.07;;
6564;SDS011;3316;44.118;27.258;2023-06-14T01:16:58;7.27;;;4.87;;
6564;SDS011;3316;44.118;27.258;2023-06-14T01:19:25;6.43;;;4.43;;
6564;SDS011;3316;44.118;27.258;2023-06-14T01:21:53;9.23;;;4.90;;
6564;SDS011;3316;44.118;27.258;2023-06-14T01:24:20;8.00;;;4.87;;
6564;SDS011;3316;44.118;27.258;2023-06-14T01:26:51;7.00;;;4.57;;
6564;SDS011;3316;44.118;27.258;2023-06-14T01:29:21;9.83;;;4.90;;
6564;SDS011;3316;44.118;27.258;2023-06-14T01:31:47;7.17;;;5.00;;
6564;SDS011;3316;44.118;27.258;2023-06-14T01:34:14;7.50;;;4.40;;
6564;SDS011;3316;44.118;27.258;2023-06-14T01:36:41;8.53;;;4.60;;
6564;SDS011;3316;44.118;27.258;2023-06-14T01:39:09;8.47;;;4.47;;
6564;SDS011;3316;44.118;27.258;2023-06-14T01:41:39;11.93;;;4.90;;
6564;SDS011;3316;44.118;27.258;2023-06-14T01:44:05;13.33;;;5.30;;
6564;SDS011;3316;44.118;27.258;2023-06-14T01:46:31;10.50;;;4.80;;
6564;SDS011;3316;44.118;27.258;2023-06-14T01:48:57;12.27;;;4.80;;
6564;SDS011;3316;44.118;27.258;2023-06-14T01:51:23;8.60;;;5.37;;
6564;SDS011;3316;44.118;27.258;2023-06-14T01:53:49;7.83;;;5.40;;
6564;SDS011;3316;44.118;27.258;2023-06-14T01:56:15;13.77;;;5.10;;
6564;SDS011;3316;44.118;27.258;2023-06-14T01:58:41;6.37;;;4.90;;
6564;SDS011;3316;44.118;27.258;2023-06-14T02:01:06;6.93;;;4.80;;
6564;SDS011;3316;44.118;27.258;2023-06-14T02:03:32;7.67;;;5.20;;
6564;SDS011;3316;44.118;27.258;2023-06-14T02:05:58;6.07;;;4.70;;
6564;SDS011;3316;44.118;27.258;2023-06-14T02:08:23;6.13;;;5.50;;
6564;SDS011;3316;44.118;27.258;2023-06-14T02:10:49;10.87;;;5.80;;
6564;SDS011;3316;44.118;27.258;2023-06-14T02:13:15;6.63;;;5.13;;
6564;SDS011;3316;44.118;27.258;2023-06-14T02:15:40;8.10;;;5.27;;
6564;SDS011;3316;44.118;27.258;2023-06-14T02:18:09;6.97;;;5.30;;
6564;SDS011;3316;44.118;27.258;2023-06-14T02:20:35;7.27;;;5.30;;
6564;SDS011;3316;44.118;27.258;2023-06-14T02:23:01;10.00;;;5.73;;
6564;SDS011;3316;44.118;27.258;2023-06-14T02:25:26;10.43;;;6.17;;
6564;SDS011;3316;44.118;27.258;2023-06-14T02:27:55;10.40;;;5.50;;
6564;SDS011;3316;44.118;27.258;2023-06-14T02:30:20;10.10;;;6.57;;
6564;SDS011;3316;44.118;27.258;2023-06-14T02:32:46;8.70;;;5.37;;
6564;SDS011;3316;44.118;27.258;2023-06-14T02:35:13;8.80;;;5.93;;
6564;SDS011;3316;44.118;27.258;2023-06-14T02:37:39;7.97;;;5.80;;
6564;SDS011;3316;44.118;27.258;2023-06-14T02:40:05;6.70;;;5.50;;
6564;SDS011;3316;44.118;27.258;2023-06-14T02:42:34;7.83;;;6.00;;
6564;SDS011;3316;44.118;27.258;2023-06-14T02:44:59;11.80;;;6.10;;
6564;SDS011;3316;44.118;27.258;2023-06-14T02:47:25;10.07;;;5.87;;
6564;SDS011;3316;44.118;27.258;2023-06-14T02:49:51;11.33;;;6.20;;
6564;SDS011;3316;44.118;27.258;2023-06-14T02:52:16;11.57;;;5.83;;
6564;SDS011;3316;44.118;27.258;2023-06-14T02:54:42;6.97;;;5.37;;
6564;SDS011;3316;44.118;27.258;2023-06-14T02:57:07;11.27;;;6.07;;
6564;SDS011;3316;44.118;27.258;2023-06-14T02:59:33;6.37;;;4.93;;
6564;SDS011;3316;44.118;27.258;2023-06-14T03:02:00;7.27;;;5.10;;
6564;SDS011;3316;44.118;27.258;2023-06-14T03:04:25;10.10;;;5.97;;
6564;SDS011;3316;44.118;27.258;2023-06-14T03:06:52;9.07;;;5.07;;
6564;SDS011;3316;44.118;27.258;2023-06-14T03:09:18;8.60;;;5.03;;
6564;SDS011;3316;44.118;27.258;2023-06-14T03:11:44;7.30;;;4.80;;
6564;SDS011;3316;44.118;27.258;2023-06-14T03:14:10;7.77;;;5.00;;
6564;SDS011;3316;44.118;27.258;2023-06-14T03:16:36;9.87;;;6.27;;
6564;SDS011;3316;44.118;27.258;2023-06-14T03:19:02;11.43;;;5.50;;
6564;SDS011;3316;44.118;27.258;2023-06-14T03:21:28;9.63;;;5.50;;
6564;SDS011;3316;44.118;27.258;2023-06-14T03:23:53;12.18;;;5.70;;
6564;SDS011;3316;44.118;27.258;2023-06-14T03:26:19;12.23;;;5.63;;
6564;SDS011;3316;44.118;27.258;2023-06-14T03:28:45;8.23;;;5.47;;
6564;SDS011;3316;44.118;27.258;2023-06-14T03:31:11;7.15;;;4.95;;
6564;SDS011;3316;44.118;27.258;2023-06-14T03:33:41;10.65;;;5.75;;
6564;SDS011;3316;44.118;27.258;2023-06-14T03:36:06;7.75;;;5.25;;
6564;SDS011;3316;44.118;27.258;2023-06-14T03:38:32;7.32;;;4.85;;
6564;SDS011;3316;44.118;27.258;2023-06-14T03:40:58;8.65;;;4.93;;
6564;SDS011;3316;44.118;27.258;2023-06-14T03:43:24;6.28;;;4.38;;
6564;SDS011;3316;44.118;27.258;2023-06-14T03:45:49;9.57;;;4.82;;
6564;SDS011;3316;44.118;27.258;2023-06-14T03:48:15;7.65;;;4.60;;
6564;SDS011;3316;44.118;27.258;2023-06-14T03:50:41;7.38;;;5.32;;
6564;SDS011;3316;44.118;27.258;2023-06-14T03:53:08;6.45;;;4.78;;
6564;SDS011;3316;44.118;27.258;2023-06-14T03:55:34;7.35;;;5.20;;
6564;SDS011;3316;44.118;27.258;2023-06-14T03:57:59;8.73;;;4.90;;
6564;SDS011;3316;44.118;27.258;2023-06-14T04:00:25;6.88;;;5.60;;
6564;SDS011;3316;44.118;27.258;2023-06-14T04:02:51;11.43;;;7.25;;
6564;SDS011;3316;44.118;27.258;2023-06-14T04:05:17;14.70;;;6.28;;
6564;SDS011;3316;44.118;27.258;2023-06-14T04:07:44;8.15;;;5.93;;
6564;SDS011;3316;44.118;27.258;2023-06-14T04:10:14;30.65;;;15.30;;
6564;SDS011;3316;44.118;27.258;2023-06-14T04:12:40;25.00;;;12.07;;
6564;SDS011;3316;44.118;27.258;2023-06-14T04:15:06;13.48;;;8.90;;
6564;SDS011;3316;44.118;27.258;2023-06-14T04:17:33;8.95;;;5.80;;
6564;SDS011;3316;44.118;27.258;2023-06-14T04:19:59;13.90;;;7.55;;
6564;SDS011;3316;44.118;27.258;2023-06-14T04:22:25;20.75;;;10.93;;
6564;SDS011;3316;44.118;27.258;2023-06-14T04:24:53;31.83;;;17.30;;
6564;SDS011;3316;44.118;27.258;2023-06-14T04:27:21;20.83;;;10.95;;
6564;SDS011;3316;44.118;27.258;2023-06-14T04:29:50;14.23;;;8.82;;
6564;SDS011;3316;44.118;27.258;2023-06-14T04:32:22;11.25;;;6.78;;
6564;SDS011;3316;44.118;27.258;2023-06-14T04:34:52;10.90;;;6.13;;
6564;SDS011;3316;44.118;27.258;2023-06-14T04:37:19;7.88;;;5.50;;
6564;SDS011;3316;44.118;27.258;2023-06-14T04:39:46;44.25;;;18.98;;
6564;SDS011;3316;44.118;27.258;2023-06-14T04:42:12;13.23;;;6.72;;
6564;SDS011;3316;44.118;27.258;2023-06-14T04:44:40;11.65;;;7.68;;
6564;SDS011;3316;44.118;27.258;2023-06-14T04:47:06;26.63;;;13.93;;
6564;SDS011;3316;44.118;27.258;2023-06-14T04:49:32;10.68;;;6.25;;
6564;SDS011;3316;44.118;27.258;2023-06-14T04:51:59;11.90;;;6.07;;
6564;SDS011;3316;44.118;27.258;2023-06-14T04:54:26;11.68;;;6.10;;
6564;SDS011;3316;44.118;27.258;2023-06-14T04:56:52;12.32;;;6.22;;
6564;SDS011;3316;44.118;27.258;2023-06-14T04:59:20;8.88;;;6.15;;
6564;SDS011;3316;44.118;27.258;2023-06-14T05:01:48;9.88;;;6.03;;
6564;SDS011;3316;44.118;27.258;2023-06-14T05:04:14;9.10;;;6.50;;
6564;SDS011;3316;44.118;27.258;2023-06-14T05:06:41;15.30;;;8.13;;
6564;SDS011;3316;44.118;27.258;2023-06-14T05:09:10;12.65;;;8.38;;
6564;SDS011;3316;44.118;27.258;2023-06-14T05:11:39;17.83;;;8.18;;
6564;SDS011;3316;44.118;27.258;2023-06-14T05:14:04;16.35;;;8.18;;
6564;SDS011;3316;44.118;27.258;2023-06-14T05:16:31;31.65;;;18.50;;
6564;SDS011;3316;44.118;27.258;2023-06-14T05:18:56;12.30;;;7.57;;
6564;SDS011;3316;44.118;27.258;2023-06-14T05:21:23;9.40;;;5.80;;
6564;SDS011;3316;44.118;27.258;2023-06-14T05:23:48;19.98;;;9.07;;
6564;SDS011;3316;44.118;27.258;2023-06-14T05:26:14;28.17;;;15.40;;
6564;SDS011;3316;44.118;27.258;2023-06-14T05:28:39;24.77;;;12.95;;
6564;SDS011;3316;44.118;27.258;2023-06-14T05:31:05;23.25;;;12.77;;
6564;SDS011;3316;44.118;27.258;2023-06-14T05:33:30;22.27;;;10.38;;
6564;SDS011;3316;44.118;27.258;2023-06-14T05:35:56;10.85;;;7.80;;
6564;SDS011;3316;44.118;27.258;2023-06-14T05:38:21;10.27;;;6.57;;
6564;SDS011;3316;44.118;27.258;2023-06-14T05:40:47;15.38;;;7.18;;
6564;SDS011;3316;44.118;27.258;2023-06-14T05:43:12;13.60;;;6.90;;
6564;SDS011;3316;44.118;27.258;2023-06-14T05:45:38;11.98;;;7.20;;
6564;SDS011;3316;44.118;27.258;2023-06-14T05:48:03;14.18;;;7.22;;
6564;SDS011;3316;44.118;27.258;2023-06-14T05:50:30;14.43;;;7.38;;
6564;SDS011;3316;44.118;27.258;2023-06-14T05:52:55;16.15;;;7.75;;
6564;SDS011;3316;44.118;27.258;2023-06-14T05:55:21;7.50;;;6.50;;
6564;SDS011;3316;44.118;27.258;2023-06-14T05:57:46;11.00;;;7.20;;
6564;SDS011;3316;44.118;27.258;2023-06-14T06:00:13;9.30;;;6.90;;
6564;SDS011;3316;44.118;27.258;2023-06-14T06:02:40;14.55;;;7.53;;
6564;SDS011;3316;44.118;27.258;2023-06-14T06:05:09;9.90;;;6.47;;
6564;SDS011;3316;44.118;27.258;2023-06-14T06:07:35;10.55;;;5.82;;
6564;SDS011;3316;44.118;27.258;2023-06-14T06:10:02;10.38;;;6.75;;
6564;SDS011;3316;44.118;27.258;2023-06-14T06:12:27;10.18;;;6.10;;
6564;SDS011;3316;44.118;27.258;2023-06-14T06:14:53;8.18;;;5.78;;
6564;SDS011;3316;44.118;27.258;2023-06-14T06:17:18;13.50;;;6.57;;
6564;SDS011;3316;44.118;27.258;2023-06-14T06:19:44;7.90;;;5.68;;
6564;SDS011;3316;44.118;27.258;2023-06-14T06:22:09;11.98;;;6.30;;
6564;SDS011;3316;44.118;27.258;2023-06-14T06:24:35;12.48;;;6.60;;
6564;SDS011;3316;44.118;27.258;2023-06-14T06:27:00;10.75;;;7.03;;
6564;SDS011;3316;44.118;27.258;2023-06-14T06:29:26;14.27;;;6.47;;
6564;SDS011;3316;44.118;27.258;2023-06-14T06:31:51;15.48;;;6.78;;
6564;SDS011;3316;44.118;27.258;2023-06-14T06:34:16;16.98;;;6.00;;
6564;SDS011;3316;44.118;27.258;2023-06-14T06:36:42;15.90;;;6.07;;
6564;SDS011;3316;44.118;27.258;2023-06-14T06:39:07;12.57;;;6.00;;
6564;SDS011;3316;44.118;27.258;2023-06-14T06:41:36;7.68;;;5.57;;
6564;SDS011;3316;44.118;27.258;2023-06-14T06:44:04;10.70;;;5.30;;
6564;SDS011;3316;44.118;27.258;2023-06-14T06:46:35;10.15;;;5.32;;
6564;SDS011;3316;44.118;27.258;2023-06-14T06:49:05;7.47;;;5.03;;
6564;SDS011;3316;44.118;27.258;2023-06-14T06:51:31;9.77;;;5.63;;
6564;SDS011;3316;44.118;27.258;2023-06-14T06:53:56;6.97;;;5.00;;
6564;SDS011;3316;44.118;27.258;2023-06-14T06:56:22;8.40;;;4.75;;
6564;SDS011;3316;44.118;27.258;2023-06-14T06:58:51;10.55;;;5.40;;
6564;SDS011;3316;44.118;27.258;2023-06-14T07:01:16;8.90;;;5.20;;
6564;SDS011;3316;44.118;27.258;2023-06-14T07:03:42;9.07;;;5.43;;
6564;SDS011;3316;44.118;27.258;2023-06-14T07:06:08;8.60;;;5.00;;
6564;SDS011;3316;44.118;27.258;2023-06-14T07:08:34;11.45;;;7.10;;
6564;SDS011;3316;44.118;27.258;2023-06-14T07:10:59;8.48;;;6.10;;
6564;SDS011;3316;44.118;27.258;2023-06-14T07:13:25;8.60;;;5.15;;
6564;SDS011;3316;44.118;27.258;2023-06-14T07:15:50;7.95;;;5.28;;
6564;SDS011;3316;44.118;27.258;2023-06-14T07:18:18;7.15;;;4.80;;
6564;SDS011;3316;44.118;27.258;2023-06-14T07:20:43;7.15;;;4.82;;
6564;SDS011;3316;44.118;27.258;2023-06-14T07:23:09;8.63;;;5.18;;
6564;SDS011;3316;44.118;27.258;2023-06-14T07:25:35;7.63;;;5.45;;
6564;SDS011;3316;44.118;27.258;2023-06-14T07:28:01;5.63;;;4.93;;
6564;SDS011;3316;44.118;27.258;2023-06-14T07:30:26;5.20;;;4.45;;
6564;SDS011;3316;44.118;27.258;2023-06-14T07:32:52;5.88;;;5.10;;
6564;SDS011;3316;44.118;27.258;2023-06-14T07:35:18;7.40;;;4.68;;
6564;SDS011;3316;44.118;27.258;2023-06-14T07:37:44;7.30;;;5.25;;
6564;SDS011;3316;44.118;27.258;2023-06-14T07:40:10;9.57;;;5.47;;
6564;SDS011;3316;44.118;27.258;2023-06-14T07:42:36;6.93;;;5.28;;
6564;SDS011;3316;44.118;27.258;2023-06-14T07:45:05;8.27;;;6.45;;
6564;SDS011;3316;44.118;27.258;2023-06-14T07:47:31;9.07;;;5.63;;
6564;SDS011;3316;44.118;27.258;2023-06-14T07:49:57;7.50;;;5.18;;
6564;SDS011;3316;44.118;27.258;2023-06-14T07:52:22;7.22;;;5.22;;
6564;SDS011;3316;44.118;27.258;2023-06-14T07:54:47;9.13;;;4.97;;
6564;SDS011;3316;44.118;27.258;2023-06-14T07:57:13;9.43;;;5.55;;
6564;SDS011;3316;44.118;27.258;2023-06-14T07:59:38;6.97;;;5.10;;
6564;SDS011;3316;44.118;27.258;2023-06-14T08:02:04;13.20;;;5.05;;
6564;SDS011;3316;44.118;27.258;2023-06-14T08:04:30;5.55;;;4.88;;
6564;SDS011;3316;44.118;27.258;2023-06-14T08:06:56;8.75;;;4.78;;
6564;SDS011;3316;44.118;27.258;2023-06-14T08:09:22;7.70;;;4.90;;
6564;SDS011;3316;44.118;27.258;2023-06-14T08:11:48;7.80;;;5.03;;
6564;SDS011;3316;44.118;27.258;2023-06-14T08:14:13;8.18;;;4.90;;
6564;SDS011;3316;44.118;27.258;2023-06-14T08:16:38;11.52;;;5.60;;
6564;SDS011;3316;44.118;27.258;2023-06-14T08:19:04;9.40;;;5.70;;
6564;SDS011;3316;44.118;27.258;2023-06-14T08:21:30;8.15;;;5.38;;
6564;SDS011;3316;44.118;27.258;2023-06-14T08:23:58;6.22;;;5.20;;
6564;SDS011;3316;44.118;27.258;2023-06-14T08:26:25;7.53;;;5.15;;
6564;SDS011;3316;44.118;27.258;2023-06-14T08:28:54;16.63;;;6.30;;
6564;SDS011;3316;44.118;27.258;2023-06-14T08:31:20;8.27;;;5.53;;
6564;SDS011;3316;44.118;27.258;2023-06-14T08:33:46;11.43;;;6.20;;
6564;SDS011;3316;44.118;27.258;2023-06-14T08:36:11;9.68;;;5.88;;
6564;SDS011;3316;44.118;27.258;2023-06-14T08:38:37;10.00;;;6.20;;
6564;SDS011;3316;44.118;27.258;2023-06-14T08:41:04;8.73;;;5.85;;
6564;SDS011;3316;44.118;27.258;2023-06-14T08:43:33;12.10;;;5.43;;
6564;SDS011;3316;44.118;27.258;2023-06-14T08:46:03;7.22;;;4.97;;
6564;SDS011;3316;44.118;27.258;2023-06-14T08:48:29;4.95;;;4.45;;
6564;SDS011;3316;44.118;27.258;2023-06-14T08:50:59;7.13;;;5.68;;
6564;SDS011;3316;44.118;27.258;2023-06-14T08:53:32;8.20;;;5.68;;
6564;SDS011;3316;44.118;27.258;2023-06-14T08:56:01;8.15;;;5.03;;
6564;SDS011;3316;44.118;27.258;2023-06-14T08:58:33;7.07;;;4.85;;
6564;SDS011;3316;44.118;27.258;2023-06-14T09:00:59;7.15;;;4.95;;
6564;SDS011;3316;44.118;27.258;2023-06-14T09:03:30;6.18;;;4.68;;
6564;SDS011;3316;44.118;27.258;2023-06-14T09:05:58;7.55;;;4.72;;
6564;SDS011;3316;44.118;27.258;2023-06-14T09:08:24;6.90;;;4.93;;
6564;SDS011;3316;44.118;27.258;2023-06-14T09:10:51;9.88;;;4.80;;
6564;SDS011;3316;44.118;27.258;2023-06-14T09:13:17;6.95;;;5.00;;
6564;SDS011;3316;44.118;27.258;2023-06-14T09:15:42;7.32;;;4.65;;
6564;SDS011;3316;44.118;27.258;2023-06-14T09:18:08;9.20;;;4.82;;
6564;SDS011;3316;44.118;27.258;2023-06-14T09:20:34;8.55;;;5.05;;
6564;SDS011;3316;44.118;27.258;2023-06-14T09:23:00;5.95;;;4.85;;
6564;SDS011;3316;44.118;27.258;2023-06-14T09:25:26;7.32;;;4.88;;
6564;SDS011;3316;44.118;27.258;2023-06-14T09:27:52;7.45;;;5.28;;
6564;SDS011;3316;44.118;27.258;2023-06-14T09:30:19;8.00;;;5.03;;
6564;SDS011;3316;44.118;27.258;2023-06-14T09:32:45;8.57;;;5.97;;
6564;SDS011;3316;44.118;27.258;2023-06-14T09:35:11;11.32;;;6.05;;
6564;SDS011;3316;44.118;27.258;2023-06-14T09:37:36;14.05;;;7.45;;
6564;SDS011;3316;44.118;27.258;2023-06-14T09:40:05;5.15;;;4.63;;
6564;SDS011;3316;44.118;27.258;2023-06-14T09:42:32;11.98;;;5.63;;
6564;SDS011;3316;44.118;27.258;2023-06-14T09:45:00;12.68;;;5.82;;
6564;SDS011;3316;44.118;27.258;2023-06-14T09:47:27;6.60;;;5.30;;
6564;SDS011;3316;44.118;27.258;2023-06-14T09:49:52;5.95;;;4.80;;
6564;SDS011;3316;44.118;27.258;2023-06-14T09:52:21;7.53;;;4.95;;
6564;SDS011;3316;44.118;27.258;2023-06-14T09:54:51;8.50;;;4.75;;
6564;SDS011;3316;44.118;27.258;2023-06-14T09:57:22;9.48;;;4.97;;
6564;SDS011;3316;44.118;27.258;2023-06-14T09:59:53;7.55;;;4.72;;
6564;SDS011;3316;44.118;27.258;2023-06-14T10:05:09;10.77;;;4.45;;
6564;SDS011;3316;44.118;27.258;2023-06-14T10:07:42;8.70;;;5.10;;
6564;SDS011;3316;44.118;27.258;2023-06-14T10:10:24;4.53;;;4.13;;
6564;SDS011;3316;44.118;27.258;2023-06-14T10:12:49;8.90;;;4.18;;
6564;SDS011;3316;44.118;27.258;2023-06-14T10:15:17;8.32;;;4.10;;
6564;SDS011;3316;44.118;27.258;2023-06-14T10:18:11;8.93;;;4.35;;
6564;SDS011;3316;44.118;27.258;2023-06-14T10:20:55;8.20;;;5.03;;
6564;SDS011;3316;44.118;27.258;2023-06-14T10:23:30;8.45;;;4.47;;
6564;SDS011;3316;44.118;27.258;2023-06-14T10:25:58;7.22;;;4.10;;
6564;SDS011;3316;44.118;27.258;2023-06-14T10:28:25;4.80;;;4.05;;
6564;SDS011;3316;44.118;27.258;2023-06-14T10:31:24;4.90;;;3.80;;
6564;SDS011;3316;44.118;27.258;2023-06-14T10:33:55;6.32;;;4.55;;
6564;SDS011;3316;44.118;27.258;2023-06-14T10:41:41;4.57;;;4.15;;
6564;SDS011;3316;44.118;27.258;2023-06-14T10:44:10;8.57;;;4.40;;
6564;SDS011;3316;44.118;27.258;2023-06-14T10:46:39;4.50;;;3.97;;
6564;SDS011;3316;44.118;27.258;2023-06-14T10:49:05;8.68;;;4.20;;
6564;SDS011;3316;44.118;27.258;2023-06-14T10:51:41;5.88;;;4.20;;
6564;SDS011;3316;44.118;27.258;2023-06-14T10:54:14;5.85;;;4.00;;
6564;SDS011;3316;44.118;27.258;2023-06-14T10:56:46;10.68;;;4.47;;
6564;SDS011;3316;44.118;27.258;2023-06-14T10:59:16;5.88;;;4.40;;
6564;SDS011;3316;44.118;27.258;2023-06-14T11:04:47;5.05;;;3.70;;
6564;SDS011;3316;44.118;27.258;2023-06-14T11:07:18;9.15;;;3.75;;
6564;SDS011;3316;44.118;27.258;2023-06-14T11:12:45;5.10;;;3.60;;
6564;SDS011;3316;44.118;27.258;2023-06-14T11:15:12;5.65;;;3.70;;
6564;SDS011;3316;44.118;27.258;2023-06-14T11:17:53;5.22;;;3.80;;
6564;SDS011;3316;44.118;27.258;2023-06-14T11:20:19;6.50;;;3.60;;
6564;SDS011;3316;44.118;27.258;2023-06-14T11:22:44;5.85;;;4.43;;
6564;SDS011;3316;44.118;27.258;2023-06-14T11:25:11;6.05;;;4.20;;
6564;SDS011;3316;44.118;27.258;2023-06-14T11:27:37;6.82;;;4.00;;
6564;SDS011;3316;44.118;27.258;2023-06-14T11:30:03;4.03;;;3.58;;
6564;SDS011;3316;44.118;27.258;2023-06-14T11:32:32;8.68;;;4.38;;
6564;SDS011;3316;44.118;27.258;2023-06-14T11:34:57;4.03;;;3.60;;
6564;SDS011;3316;44.118;27.258;2023-06-14T11:37:29;5.47;;;3.70;;
6564;SDS011;3316;44.118;27.258;2023-06-14T11:39:58;4.47;;;3.20;;
6564;SDS011;3316;44.118;27.258;2023-06-14T11:42:27;4.80;;;3.80;;
6564;SDS011;3316;44.118;27.258;2023-06-14T11:44:54;4.90;;;3.88;;
6564;SDS011;3316;44.118;27.258;2023-06-14T11:47:20;7.40;;;3.70;;
6564;SDS011;3316;44.118;27.258;2023-06-14T11:49:46;6.45;;;3.85;;
6564;SDS011;3316;44.118;27.258;2023-06-14T11:52:12;6.13;;;3.58;;
6564;SDS011;3316;44.118;27.258;2023-06-14T11:54:37;5.20;;;3.72;;
6564;SDS011;3316;44.118;27.258;2023-06-14T11:57:05;6.68;;;3.88;;
6564;SDS011;3316;44.118;27.258;2023-06-14T11:59:32;6.05;;;3.92;;
6564;SDS011;3316;44.118;27.258;2023-06-14T12:02:03;7.97;;;3.85;;
6564;SDS011;3316;44.118;27.258;2023-06-14T12:04:29;5.13;;;3.40;;
6564;SDS011;3316;44.118;27.258;2023-06-14T12:06:55;6.70;;;3.72;;
6564;SDS011;3316;44.118;27.258;2023-06-14T12:09:22;4.40;;;3.60;;
6564;SDS011;3316;44.118;27.258;2023-06-14T12:11:49;5.20;;;3.80;;
6564;SDS011;3316;44.118;27.258;2023-06-14T12:14:15;6.20;;;3.67;;
6564;SDS011;3316;44.118;27.258;2023-06-14T12:16:41;4.47;;;4.07;;
6564;SDS011;3316;44.118;27.258;2023-06-14T12:19:16;4.50;;;3.83;;
6564;SDS011;3316;44.118;27.258;2023-06-14T12:21:42;4.40;;;3.70;;
6564;SDS011;3316;44.118;27.258;2023-06-14T12:24:13;5.65;;;3.90;;
6564;SDS011;3316;44.118;27.258;2023-06-14T12:26:40;4.85;;;3.78;;
6564;SDS011;3316;44.118;27.258;2023-06-14T12:29:06;4.97;;;3.83;;
6564;SDS011;3316;44.118;27.258;2023-06-14T12:31:32;5.43;;;3.80;;
6564;SDS011;3316;44.118;27.258;2023-06-14T12:33:58;4.07;;;3.60;;
6564;SDS011;3316;44.118;27.258;2023-06-14T12:36:24;4.53;;;3.85;;
6564;SDS011;3316;44.118;27.258;2023-06-14T12:38:50;8.05;;;3.80;;
6564;SDS011;3316;44.118;27.258;2023-06-14T12:41:19;4.85;;;3.53;;
6564;SDS011;3316;44.118;27.258;2023-06-14T12:43:47;8.07;;;3.95;;
6564;SDS011;3316;44.118;27.258;2023-06-14T12:46:13;7.25;;;3.88;;
6564;SDS011;3316;44.118;27.258;2023-06-14T12:48:39;5.50;;;3.85;;
6564;SDS011;3316;44.118;27.258;2023-06-14T12:51:04;9.07;;;4.00;;
6564;SDS011;3316;44.118;27.258;2023-06-14T12:53:30;7.45;;;3.88;;
6564;SDS011;3316;44.118;27.258;2023-06-14T12:55:55;7.55;;;3.95;;
6564;SDS011;3316;44.118;27.258;2023-06-14T12:58:21;5.47;;;3.40;;
6564;SDS011;3316;44.118;27.258;2023-06-14T13:00:46;5.13;;;3.55;;
6564;SDS011;3316;44.118;27.258;2023-06-14T13:03:12;7.88;;;4.03;;
6564;SDS011;3316;44.118;27.258;2023-06-14T13:05:37;4.15;;;3.65;;
6564;SDS011;3316;44.118;27.258;2023-06-14T13:08:06;4.78;;;3.90;;
6564;SDS011;3316;44.118;27.258;2023-06-14T13:10:33;4.28;;;3.88;;
6564;SDS011;3316;44.118;27.258;2023-06-14T13:12:59;8.52;;;3.75;;
6564;SDS011;3316;44.118;27.258;2023-06-14T13:15:25;4.20;;;3.33;;
6564;SDS011;3316;44.118;27.258;2023-06-14T13:17:52;5.50;;;3.40;;
6564;SDS011;3316;44.118;27.258;2023-06-14T13:20:17;4.78;;;3.60;;
6564;SDS011;3316;44.118;27.258;2023-06-14T13:22:43;8.10;;;3.30;;
6564;SDS011;3316;44.118;27.258;2023-06-14T13:25:09;5.30;;;3.88;;
6564;SDS011;3316;44.118;27.258;2023-06-14T13:27:34;7.88;;;4.10;;
6564;SDS011;3316;44.118;27.258;2023-06-14T13:29:59;4.13;;;2.85;;
6564;SDS011;3316;44.118;27.258;2023-06-14T13:32:25;8.85;;;4.18;;
6564;SDS011;3316;44.118;27.258;2023-06-14T13:34:50;4.97;;;3.80;;
6564;SDS011;3316;44.118;27.258;2023-06-14T13:37:16;6.78;;;4.32;;
6564;SDS011;3316;44.118;27.258;2023-06-14T13:39:41;6.38;;;4.07;;
6564;SDS011;3316;44.118;27.258;2023-06-14T13:42:07;8.68;;;6.07;;
6564;SDS011;3316;44.118;27.258;2023-06-14T13:44:32;7.28;;;4.22;;
6564;SDS011;3316;44.118;27.258;2023-06-14T13:46:59;5.22;;;4.32;;
6564;SDS011;3316;44.118;27.258;2023-06-14T13:49:25;5.20;;;3.80;;
6564;SDS011;3316;44.118;27.258;2023-06-14T13:51:50;5.57;;;3.75;;
6564;SDS011;3316;44.118;27.258;2023-06-14T13:54:18;6.13;;;3.63;;
6564;SDS011;3316;44.118;27.258;2023-06-14T13:56:45;5.40;;;3.53;;
6564;SDS011;3316;44.118;27.258;2023-06-14T13:59:10;6.65;;;3.67;;
6564;SDS011;3316;44.118;27.258;2023-06-14T14:01:37;5.07;;;3.55;;
6564;SDS011;3316;44.118;27.258;2023-06-14T14:04:02;5.70;;;3.60;;
6564;SDS011;3316;44.118;27.258;2023-06-14T14:06:28;5.53;;;3.75;;
6564;SDS011;3316;44.118;27.258;2023-06-14T14:08:53;10.63;;;3.97;;
6564;SDS011;3316;44.118;27.258;2023-06-14T14:11:19;5.10;;;3.08;;
6564;SDS011;3316;44.118;27.258;2023-06-14T14:13:45;5.60;;;3.85;;
6564;SDS011;3316;44.118;27.258;2023-06-14T14:16:11;9.40;;;3.72;;
6564;SDS011;3316;44.118;27.258;2023-06-14T14:18:38;5.97;;;3.65;;
6564;SDS011;3316;44.118;27.258;2023-06-14T14:21:03;5.05;;;3.65;;
6564;SDS011;3316;44.118;27.258;2023-06-14T14:23:29;5.15;;;3.40;;
6564;SDS011;3316;44.118;27.258;2023-06-14T14:25:54;5.78;;;3.28;;
6564;SDS011;3316;44.118;27.258;2023-06-14T14:28:20;9.32;;;4.25;;
6564;SDS011;3316;44.118;27.258;2023-06-14T14:30:46;5.60;;;4.07;;
6564;SDS011;3316;44.118;27.258;2023-06-14T14:33:16;6.47;;;3.80;;
6564;SDS011;3316;44.118;27.258;2023-06-14T14:35:43;8.02;;;4.00;;
6564;SDS011;3316;44.118;27.258;2023-06-14T14:38:11;12.05;;;6.65;;
6564;SDS011;3316;44.118;27.258;2023-06-14T14:40:42;28.85;;;13.57;;
6564;SDS011;3316;44.118;27.258;2023-06-14T14:43:09;22.00;;;10.02;;
6564;SDS011;3316;44.118;27.258;2023-06-14T14:45:35;11.73;;;6.90;;
6564;SDS011;3316;44.118;27.258;2023-06-14T14:48:01;9.75;;;5.80;;
6564;SDS011;3316;44.118;27.258;2023-06-14T14:50:27;11.40;;;4.47;;
6564;SDS011;3316;44.118;27.258;2023-06-14T14:52:53;10.77;;;4.32;;
6564;SDS011;3316;44.118;27.258;2023-06-14T14:55:18;8.70;;;4.20;;
6564;SDS011;3316;44.118;27.258;2023-06-14T14:57:45;6.90;;;4.07;;
6564;SDS011;3316;44.118;27.258;2023-06-14T15:00:10;5.90;;;4.47;;
6564;SDS011;3316;44.118;27.258;2023-06-14T15:02:36;6.90;;;4.40;;
6564;SDS011;3316;44.118;27.258;2023-06-14T15:05:02;13.90;;;4.50;;
6564;SDS011;3316;44.118;27.258;2023-06-14T15:07:28;10.32;;;5.03;;
6564;SDS011;3316;44.118;27.258;2023-06-14T15:09:56;15.27;;;5.50;;
6564;SDS011;3316;44.118;27.258;2023-06-14T15:12:22;11.60;;;5.82;;
6564;SDS011;3316;44.118;27.258;2023-06-14T15:14:51;8.27;;;5.60;;